KOMA/OMA METAR and TAF weather

Enter ICAO airport designator
Station Type Date Time Source
KOMA METAR 2019/02/16 17:52 UTC NOAA

KOMA 161752Z 02003KT 10SM BKN180 M08/M15 A3002 RMK AO2 SLP182 4/003 933004 I6000 T10831150 11083 21172 58020


Station Type Date Time Source
KOMA Decoded METAR 2019/02/16 17:52 UTC NOAA

OMAHA EPPLEY AIRFIELD, NE, United States (KOMA) 41-18N 095-54W 312M
Feb 16, 2019 - 12:52 PM EST / 2019.02.16 1752 UTC
Wind: from the NNE (020 degrees) at 3 MPH (3 KT):0
Visibility: 10 mile(s):0
Sky conditions: mostly cloudy
Weather: 3 inches of snow on ground
Temperature: 17.1 F (-8.3 C)
Dew Point: 5.0 F (-15.0 C)
Relative Humidity: 58%
Pressure (altimeter): 30.02 in. Hg (1016 hPa)
Pressure tendency: 0.06 inches (2.0 hPa) lower than three hours ago
ob: KOMA 161752Z 02003KT 10SM BKN180 M08/M15 A3002 RMK AO2 SLP182 4/003 933004 I6000 T10831150 11083 21172 58020
cycle: 18

Station Type Date Time Source
KOMA TAF 2019/02/16 18:51 UTC NOAA

TAF KOMA 161747Z 1618/1718 12005KT P6SM BKN200
TEMPO 1623/1701 10010KT 4SM -SN OVC015
FM170100 09008KT 1SM -SN BR OVC015
TEMPO 1701/1705 1/2SM SN FZFG OVC015
FM170600 09007KT 1 1/2SM -SN BR OVC015
FM171400 35005KT 2SM BR OVC020 PROB30 1714/1718 1SM -SN BR OVC005


Example: see airport list